Cagliari / Elmas Airport LIEE

Flugplatz Daten

Name: Cagliari / Elmas Airport

Ident: LIEE

Lat: 39,25149918

Long: 9,054280281

Platzhöhe: 13 ft

IataCode: CAG

City: Cagliari

Homepage: http://www.cagliariairport.it/en/

Metar

2022/08/13 17:20
LIEE 131720Z 33008KT CAVOK 34/15 Q1010

Taf

2022/08/13 12:11
TAF LIEE 131100Z 1312/1412 19013KT 9999 FEW030
BECMG 1316/1318 33010KT
BECMG 1320/1322 VRB05KT
Gewünschte Webcam nicht vorhanden? Dann fügen Sie eine hinzu. Sie wird dann so schnell wie möglich freigeschaltet
Url: Title: